Time;durP1;ratioP1;P1;durP2;ratioP2;P2;SDS_P1;SDS_P2;PMS_P1;PMS_P2;Temp;Humidity;BMP_temperature;BMP_pressure;BME280_temperature;BME280_humidity;BME280_pressure;Samples;Min_cycle;Max_cycle;Signal;HPM_P1;HPM_P2
2022/08/14 00:01:15;;;;;;;;;10.75;7.75;;;;;28.68;26.66;100350.19;5018961;28;45210;-49
2022/08/14 00:03:41;;;;;;;;;11.75;7.50;;;;;28.69;26.30;100351.03;5018984;28;45321;-49
2022/08/14 00:06:06;;;;;;;;;5.00;5.00;;;;;28.68;26.10;100333.34;5019195;28;45464;-49
2022/08/14 00:08:31;;;;;;;;;9.75;9.50;;;;;28.68;26.10;100334.19;5018661;28;45452;-50
2022/08/14 00:10:57;;;;;;;;;9.50;8.25;;;;;28.67;26.38;100321.84;5018766;28;45391;-50
2022/08/14 00:13:27;;;;;;;;;7.75;7.75;;;;;28.68;26.32;100323.53;5017533;28;45966;-49
2022/08/14 00:15:54;;;;;;;;;9.75;7.00;;;;;28.68;25.89;100325.34;5018598;28;45211;-54
2022/08/14 00:18:22;;;;;;;;;8.75;7.25;;;;;28.67;26.04;100321.00;5017992;28;46077;-52
2022/08/14 00:20:49;;;;;;;;;11.75;8.00;;;;;28.66;26.11;100314.84;5018193;28;45864;-52
2022/08/14 00:23:15;;;;;;;;;10.25;7.25;;;;;28.67;26.36;100316.53;5018637;28;45469;-50
2022/08/14 00:25:42;;;;;;;;;8.50;7.50;;;;;28.67;25.82;100310.34;5018585;28;45533;-53
2022/08/14 00:28:10;;;;;;;;;8.25;8.00;;;;;28.67;26.33;100300.53;5029872;28;45342;-47
2022/08/14 00:30:35;;;;;;;;;8.50;7.50;;;;;28.66;25.67;100293.50;5034776;28;45210;-51
2022/08/14 00:33:01;;;;;;;;;9.25;6.50;;;;;28.65;26.00;100297.16;5031754;28;45213;-50
2022/08/14 00:35:27;;;;;;;;;6.25;6.00;;;;;28.65;26.41;100286.50;5020690;28;45376;-47
2022/08/14 00:37:52;;;;;;;;;6.50;6.25;;;;;28.65;26.10;100286.50;5018158;28;46045;-45
2022/08/14 00:40:20;;;;;;;;;9.25;6.50;;;;;28.65;25.86;100285.69;5017918;28;45412;-47
2022/08/14 00:42:46;;;;;;;;;7.25;6.00;;;;;28.63;26.22;100283.13;5017936;28;45341;-46
2022/08/14 00:45:14;;;;;;;;;7.00;6.50;;;;;28.64;26.02;100287.47;5017903;28;45320;-49
2022/08/14 00:47:41;;;;;;;;;5.25;5.25;;;;;28.64;25.72;100284.81;5016924;28;46418;-47
2022/08/14 00:50:09;;;;;;;;;9.00;6.25;;;;;28.62;25.77;100283.31;5019238;28;45380;-48
2022/08/14 00:52:35;;;;;;;;;6.75;4.50;;;;;28.62;25.64;100285.97;5018215;28;45367;-49
2022/08/14 00:55:01;;;;;;;;;8.25;6.25;;;;;28.60;25.65;100282.59;5017593;28;45553;-49
2022/08/14 00:57:29;;;;;;;;;5.00;5.00;;;;;28.58;25.48;100277.44;5017796;28;46319;-53
2022/08/14 00:59:56;;;;;;;;;7.00;6.00;;;;;28.55;25.18;100280.41;5017048;28;45478;-48
2022/08/14 01:02:23;;;;;;;;;6.25;3.75;;;;;28.52;25.48;100278.03;5017790;28;45501;-45
2022/08/14 01:04:50;;;;;;;;;8.25;5.00;;;;;28.48;25.39;100268.69;5017243;28;45343;-48
2022/08/14 01:07:19;;;;;;;;;5.75;5.75;;;;;28.44;25.10;100273.47;5016945;28;45411;-47
2022/08/14 01:09:47;;;;;;;;;4.25;4.25;;;;;28.41;25.33;100263.13;5017605;28;45732;-44
2022/08/14 01:12:15;;;;;;;;;4.00;4.00;;;;;28.38;25.48;100258.06;5017105;28;45427;-45
2022/08/14 01:14:40;;;;;;;;;4.25;4.25;;;;;28.33;25.38;100244.38;5018817;28;45406;-45
2022/08/14 01:17:06;;;;;;;;;4.00;4.00;;;;;28.29;25.46;100235.00;5019141;28;47103;-44
2022/08/14 01:22:15;;;;;;;;;5.00;4.00;;;;;28.21;25.55;100233.09;5021847;28;45455;-44
2022/08/14 01:24:41;;;;;;;;;4.50;4.50;;;;;28.19;25.69;100235.91;5038040;28;45399;-47
2022/08/14 01:27:06;;;;;;;;;5.00;5.00;;;;;28.19;25.57;100232.41;5032503;28;45366;-48
2022/08/14 01:29:36;;;;;;;;;4.75;4.75;;;;;28.18;25.63;100230.72;5018027;28;45328;-49
2022/08/14 01:32:03;;;;;;;;;4.00;4.00;;;;;28.18;25.46;100233.38;5015734;28;45381;-46
2022/08/14 01:34:31;;;;;;;;;4.00;4.00;;;;;28.15;25.62;100231.03;5017339;28;45617;-51
2022/08/14 01:36:57;;;;;;;;;5.25;5.00;;;;;28.14;25.67;100229.34;5016662;28;47424;-50
2022/08/14 01:39:23;;;;;;;;;6.50;6.50;;;;;28.12;25.77;100241.97;5016364;28;45323;-48
2022/08/14 01:41:54;;;;;;;;;5.75;5.00;;;;;28.07;25.55;100232.56;5021302;28;45339;-46
2022/08/14 01:44:22;;;;;;;;;4.75;4.75;;;;;28.06;25.76;100236.22;5020707;28;45413;-48
2022/08/14 01:46:49;;;;;;;;;4.00;4.00;;;;;28.06;25.64;100238.88;5020536;28;46840;-49
2022/08/14 01:49:14;;;;;;;;;5.75;4.50;;;;;28.03;25.95;100238.34;5019555;28;45302;-47
2022/08/14 01:51:43;;;;;;;;;6.00;4.00;;;;;28.02;25.40;100232.19;5019914;28;51037;-48
2022/08/14 01:54:11;;;;;;;;;4.50;4.00;;;;;28.01;25.70;100240.31;5020393;28;45347;-46
2022/08/14 01:56:38;;;;;;;;;6.25;5.00;;;;;27.98;25.77;100230.81;5020830;28;45525;-48
2022/08/14 01:59:20;;;;;;;;;6.00;5.00;;;;;28.01;26.05;100235.00;5020132;28;45253;-48
2022/08/14 02:01:51;;;;;;;;;5.25;5.25;;;;;28.00;25.75;100233.34;5020132;28;45442;-49
2022/08/14 02:04:19;;;;;;;;;4.50;4.50;;;;;28.00;25.81;100228.84;5019702;28;45379;-48
2022/08/14 02:06:46;;;;;;;;;6.00;4.25;;;;;28.00;25.76;100239.50;5021493;28;46283;-49
2022/08/14 02:09:12;;;;;;;;;7.00;5.25;;;;;28.00;25.62;100228.03;5021439;28;45371;-48
2022/08/14 02:11:38;;;;;;;;;3.25;3.25;;;;;27.99;25.87;100224.50;5020570;28;45446;-49
2022/08/14 02:14:09;;;;;;;;;3.25;3.00;;;;;28.01;25.60;100221.69;5022662;28;45170;-49
2022/08/14 02:16:39;;;;;;;;;6.00;4.75;;;;;28.00;26.06;100215.53;5023807;28;46932;-50
2022/08/14 02:19:07;;;;;;;;;5.00;5.00;;;;;27.98;25.69;100209.50;5019864;28;45671;-49
2022/08/14 02:21:35;;;;;;;;;6.50;6.00;;;;;27.97;25.90;100213.16;5019736;28;45452;-47
2022/08/14 02:24:02;;;;;;;;;5.25;5.25;;;;;27.96;25.91;100200.81;5019888;28;45407;-50
2022/08/14 02:26:31;;;;;;;;;6.50;4.75;;;;;27.98;26.12;100206.00;5028482;28;45249;-50
2022/08/14 02:29:07;;;;;;;;;6.25;6.00;;;;;27.99;26.14;100199.69;5035938;28;44977;-46
2022/08/14 02:31:35;;;;;;;;;6.00;4.25;;;;;27.97;25.91;100189.19;5028829;28;45322;-48
2022/08/14 02:34:12;;;;;;;;;5.25;5.00;;;;;27.96;25.84;100190.16;5022680;28;45367;-47
2022/08/14 02:36:37;;;;;;;;;4.75;4.75;;;;;27.96;26.08;100187.50;5019598;28;46075;-45
2022/08/14 02:39:08;;;;;;;;;5.00;5.00;;;;;27.97;25.99;100186.50;5018859;28;45260;-46
2022/08/14 02:41:35;;;;;;;;;6.25;5.75;;;;;27.96;26.12;100190.16;5018626;28;45392;-48
2022/08/14 02:44:02;;;;;;;;;5.75;5.75;;;;;27.95;26.06;100185.00;5018126;28;45638;-48
2022/08/14 02:46:29;;;;;;;;;5.25;5.25;;;;;27.93;26.02;100175.34;5019056;28;47520;-46
2022/08/14 02:48:55;;;;;;;;;5.50;5.50;;;;;27.92;26.23;100178.16;5019293;28;45321;-50
2022/08/14 02:51:20;;;;;;;;;5.00;5.00;;;;;27.93;26.25;100171.84;5019391;28;45263;-48
2022/08/14 02:53:46;;;;;;;;;6.50;6.50;;;;;27.95;26.08;100163.69;5019354;28;45217;-47
2022/08/14 02:56:18;;;;;;;;;6.00;5.25;;;;;27.96;26.14;100155.53;5017421;28;45364;-49
2022/08/14 02:58:46;;;;;;;;;6.75;5.50;;;;;27.97;26.38;100153.72;5021890;28;45239;-49
2022/08/14 03:01:14;;;;;;;;;6.00;6.00;;;;;27.97;26.13;100164.38;5021236;28;45442;-49
2022/08/14 03:03:40;;;;;;;;;3.00;3.00;;;;;27.98;26.38;100161.56;5018132;28;45561;-47
2022/08/14 03:06:08;;;;;;;;;6.50;6.50;;;;;27.98;26.35;100166.88;5019076;28;46910;-51
2022/08/14 03:08:36;;;;;;;;;5.75;5.00;;;;;27.99;26.20;100163.25;5018895;28;45261;-53
2022/08/14 03:11:06;;;;;;;;;5.25;5.00;;;;;27.97;25.96;100165.22;5019368;28;45445;-47
2022/08/14 03:13:37;;;;;;;;;6.00;6.00;;;;;27.96;26.32;100163.53;5018884;28;45360;-50
2022/08/14 03:16:05;;;;;;;;;5.00;5.00;;;;;27.96;26.15;100176.84;5018770;28;45997;-50
2022/08/14 03:18:30;;;;;;;;;6.50;5.00;;;;;27.95;26.25;100175.16;5018152;28;45489;-50
2022/08/14 03:20:55;;;;;;;;;8.00;6.00;;;;;27.95;26.39;100172.50;5018911;28;45284;-50
2022/08/14 03:23:21;;;;;;;;;6.00;6.00;;;;;27.95;26.15;100167.19;5019134;28;45299;-49
2022/08/14 03:25:46;;;;;;;;;59.50;31.25;;;;;27.94;26.19;100162.88;5019777;28;45428;-52
2022/08/14 03:28:13;;;;;;;;;9.25;7.50;;;;;27.92;26.08;100168.31;5017708;28;45450;-51
2022/08/14 03:30:39;;;;;;;;;5.25;5.25;;;;;27.93;26.10;100170.00;5018850;28;45438;-50
2022/08/14 03:33:06;;;;;;;;;8.25;5.50;;;;;27.93;26.24;100163.84;5019099;28;45279;-48
2022/08/14 03:35:33;;;;;;;;;6.50;5.75;;;;;27.93;25.97;100171.84;5017757;28;46434;-51
2022/08/14 03:38:10;;;;;;;;;5.75;5.75;;;;;27.93;26.27;100161.19;5018094;28;45744;-51
2022/08/14 03:40:37;;;;;;;;;7.75;5.50;;;;;27.92;26.09;100152.34;5018591;28;45404;-46
2022/08/14 03:43:07;;;;;;;;;6.25;4.75;;;;;27.92;26.11;100154.19;5017995;28;45262;-52
2022/08/14 03:45:35;;;;;;;;;6.00;6.00;;;;;27.92;26.43;100167.50;5018083;28;46086;-48
2022/08/14 03:48:14;;;;;;;;;5.00;5.00;;;;;27.91;26.49;100171.97;5017203;28;45828;-51
2022/08/14 03:50:43;;;;;;;;;6.00;6.00;;;;;27.90;26.19;100170.28;5020356;28;45669;-48
2022/08/14 03:53:09;;;;;;;;;7.75;5.25;;;;;27.89;25.98;100173.13;5020893;28;45296;-46
2022/08/14 03:55:37;;;;;;;;;6.00;6.00;;;;;27.87;26.21;100186.59;5017872;28;47092;-45
2022/08/14 03:58:02;;;;;;;;;5.00;5.00;;;;;27.85;26.11;100190.38;5018674;28;45747;-46
2022/08/14 04:00:28;;;;;;;;;6.00;5.00;;;;;27.77;25.96;100186.63;5018462;28;45308;-45
2022/08/14 04:02:53;;;;;;;;;7.25;5.00;;;;;27.68;26.33;100192.00;5018271;28;45591;-47
2022/08/14 04:05:19;;;;;;;;;5.50;5.00;;;;;27.58;26.50;100195.56;5018328;28;45944;-46
2022/08/14 04:07:45;;;;;;;;;5.00;5.00;;;;;27.56;26.53;100199.34;5016030;28;45254;-47
2022/08/14 04:10:13;;;;;;;;;5.25;5.25;;;;;27.52;26.73;100197.97;5018146;28;45261;-48
2022/08/14 04:12:40;;;;;;;;;6.00;6.00;;;;;27.50;26.55;100213.28;5017873;28;45495;-47
2022/08/14 04:15:06;;;;;;;;;7.00;6.25;;;;;27.44;26.76;100202.22;5018407;28;47012;-47
2022/08/14 04:17:32;;;;;;;;;4.75;4.25;;;;;27.42;26.88;100193.50;5017768;28;45422;-46
2022/08/14 04:20:05;;;;;;;;;7.25;6.00;;;;;27.40;26.54;100191.97;5018331;28;45385;-47
2022/08/14 04:22:32;;;;;;;;;5.00;5.00;;;;;27.37;26.77;100200.25;5020900;28;46064;-49
2022/08/14 04:25:00;;;;;;;;;9.50;7.00;;;;;27.34;26.76;100205.88;5025006;28;45548;-47
2022/08/14 04:27:26;;;;;;;;;5.75;5.75;;;;;27.30;26.82;100199.97;5026586;28;45438;-45
2022/08/14 04:29:52;;;;;;;;;5.25;5.00;;;;;27.27;26.90;100202.94;5022764;28;45354;-47
2022/08/14 04:32:21;;;;;;;;;7.75;7.75;;;;;27.24;27.11;100196.06;5021807;28;45499;-49
2022/08/14 04:34:47;;;;;;;;;6.00;6.00;;;;;27.20;26.76;100180.56;5018861;28;46209;-47
2022/08/14 04:45:35;;;;;;;;;3.00;2.00;;;;;27.09;27.41;100161.13;5023870;28;45100;-47
2022/08/14 04:48:13;;;;;;;;;5.25;4.75;;;;;27.07;27.44;100163.09;5023135;28;45739;-47
2022/08/14 04:50:44;;;;;;;;;8.00;5.50;;;;;27.03;27.60;100156.41;5021266;28;45309;-47
2022/08/14 04:53:11;;;;;;;;;4.50;4.50;;;;;26.98;27.08;100159.50;5026046;28;45326;-45
2022/08/14 04:55:38;;;;;;;;;6.50;6.00;;;;;26.93;27.70;100151.09;5021812;28;46602;-46
2022/08/14 04:58:04;;;;;;;;;7.00;6.25;;;;;26.95;27.09;100145.66;5017748;28;45328;-44
2022/08/14 05:00:30;;;;;;;;;5.50;5.50;;;;;26.93;27.12;100139.63;5025621;28;45337;-46
2022/08/14 05:02:55;;;;;;;;;5.25;5.25;;;;;26.88;27.56;100144.53;5038031;28;44929;-47
2022/08/14 05:05:23;;;;;;;;;6.00;4.00;;;;;26.88;27.22;100139.22;5017749;28;46179;-45
2022/08/14 05:07:49;;;;;;;;;6.25;5.25;;;;;26.86;27.45;100136.72;5016853;28;45907;-47
2022/08/14 05:10:15;;;;;;;;;5.00;5.00;;;;;26.82;27.33;100124.69;5018228;28;45497;-50
2022/08/14 05:12:40;;;;;;;;;6.25;5.00;;;;;26.78;27.74;100126.78;5016708;28;45544;-45
2022/08/14 05:15:06;;;;;;;;;6.00;5.25;;;;;26.76;27.77;100127.88;5016663;28;46264;-46
2022/08/14 05:17:32;;;;;;;;;3.00;3.00;;;;;26.72;27.33;100132.66;5016485;28;45296;-47
2022/08/14 05:19:58;;;;;;;;;6.50;5.75;;;;;26.70;27.35;100131.97;5015101;28;45214;-49
2022/08/14 05:22:23;;;;;;;;;6.00;6.00;;;;;26.67;27.50;100149.03;5017608;28;45471;-47
2022/08/14 05:24:49;;;;;;;;;6.75;6.75;;;;;26.67;27.38;100151.69;5016555;28;46226;-49
2022/08/14 05:27:19;;;;;;;;;7.00;6.00;;;;;26.64;28.18;100159.09;5016745;28;45428;-47
2022/08/14 05:29:46;;;;;;;;;7.00;7.00;;;;;26.64;27.90;100156.44;5016161;28;45546;-46
2022/08/14 05:32:14;;;;;;;;;9.00;6.00;;;;;26.64;27.61;100151.97;5016347;28;45337;-48
2022/08/14 05:34:39;;;;;;;;;9.00;6.00;;;;;26.60;28.14;100155.06;5015788;28;47012;-47
2022/08/14 05:37:05;;;;;;;;;5.25;5.25;;;;;26.59;27.75;100150.72;5016274;28;45407;-46
2022/08/14 05:39:30;;;;;;;;;7.00;6.00;;;;;26.55;27.91;100152.81;5016172;28;45236;-47
2022/08/14 05:41:55;;;;;;;;;7.50;7.00;;;;;26.51;28.20;100136.31;5016490;28;45598;-45
2022/08/14 05:44:21;;;;;;;;;5.50;5.50;;;;;26.47;27.98;100140.25;5014782;28;46011;-48
2022/08/14 05:46:47;;;;;;;;;6.00;6.00;;;;;26.42;28.16;100139.81;5015123;28;45249;-48
2022/08/14 05:49:13;;;;;;;;;6.50;6.50;;;;;26.38;28.53;100131.28;5016304;28;45519;-47
2022/08/14 05:51:39;;;;;;;;;6.00;6.00;;;;;26.37;28.36;100112.84;5016084;28;45367;-45
2022/08/14 05:54:05;;;;;;;;;5.00;5.00;;;;;26.35;28.71;100120.09;5016021;28;46298;-48
2022/08/14 05:56:31;;;;;;;;;5.00;5.00;;;;;26.34;28.36;100121.09;5015198;28;45417;-47
2022/08/14 05:58:56;;;;;;;;;6.75;5.00;;;;;26.35;28.19;100130.72;5015986;28;45687;-48
2022/08/14 06:01:22;;;;;;;;;5.75;5.00;;;;;26.33;28.18;100130.88;5016066;28;45502;-49
2022/08/14 06:03:47;;;;;;;;;6.75;5.25;;;;;26.31;28.56;100130.19;5015390;28;46116;-49
2022/08/14 06:06:12;;;;;;;;;6.00;6.00;;;;;26.32;28.26;100128.34;5016433;28;45309;-47
2022/08/14 06:08:38;;;;;;;;;5.00;5.00;;;;;26.28;28.67;100122.47;5015871;28;45316;-47
2022/08/14 06:11:06;;;;;;;;;8.00;5.50;;;;;26.27;28.89;100131.44;5015997;28;45236;-46
2022/08/14 06:13:35;;;;;;;;;6.50;6.00;;;;;26.27;28.39;100123.47;5016161;28;46172;-49
2022/08/14 06:16:00;;;;;;;;;6.50;6.00;;;;;26.28;28.47;100117.16;5015460;28;45898;-47
2022/08/14 06:18:25;;;;;;;;;6.25;6.25;;;;;26.29;28.95;100126.00;5014612;28;45492;-48
2022/08/14 06:20:51;;;;;;;;;6.75;5.50;;;;;26.28;28.67;100125.16;5018828;28;45441;-51
2022/08/14 06:23:17;;;;;;;;;3.50;3.50;;;;;26.29;28.40;100118.03;5020524;28;47112;-47
2022/08/14 06:25:43;;;;;;;;;6.00;6.00;;;;;26.30;29.20;100114.38;5027150;28;45228;-49
2022/08/14 06:28:18;;;;;;;;;5.75;5.50;;;;;26.30;29.03;100117.03;5025721;28;45185;-47
2022/08/14 06:30:44;;;;;;;;;6.75;5.75;;;;;26.30;28.79;100114.38;5029488;28;45367;-49
2022/08/14 06:33:09;;;;;;;;;6.50;6.50;;;;;26.29;28.69;100118.84;5020318;28;45854;-47
2022/08/14 06:35:34;;;;;;;;;6.25;5.75;;;;;26.31;28.72;100124.00;5018886;28;45328;-51
2022/08/14 06:38:00;;;;;;;;;5.00;5.00;;;;;26.31;29.27;100124.88;5019624;28;45296;-46
2022/08/14 06:40:28;;;;;;;;;6.50;6.50;;;;;26.35;28.68;100130.72;5019213;28;45683;-47
2022/08/14 06:43:14;;;;;;;;;6.00;4.75;;;;;26.36;29.23;100129.75;5019832;28;46969;-45
2022/08/14 06:45:41;;;;;;;;;5.50;5.00;;;;;26.36;29.34;100137.72;5019079;28;45398;-49
2022/08/14 06:48:16;;;;;;;;;6.00;6.00;;;;;26.39;28.80;100132.13;5020936;28;45330;-50
2022/08/14 06:50:43;;;;;;;;;6.00;6.00;;;;;26.37;28.61;100140.22;5020935;28;45550;-49
2022/08/14 06:53:09;;;;;;;;;5.50;5.50;;;;;26.38;28.60;100141.91;5020058;28;46441;-49
2022/08/14 06:55:34;;;;;;;;;5.75;5.00;;;;;26.43;28.83;100143.31;5021538;28;45363;-52
2022/08/14 06:58:00;;;;;;;;;6.00;5.75;;;;;26.47;28.91;100150.88;5026245;28;45335;-47
2022/08/14 07:00:28;;;;;;;;;8.75;8.00;;;;;26.52;29.04;100143.28;5025963;28;45380;-48
2022/08/14 07:05:47;;;;;;;;;9.75;8.75;;;;;26.65;29.07;100142.16;5024756;28;45413;-50
2022/08/14 07:08:32;;;;;;;;;12.00;9.00;;;;;26.70;28.63;100140.75;5025231;28;45334;-49
2022/08/14 07:11:02;;;;;;;;;10.50;8.00;;;;;26.74;29.05;100156.44;5021735;28;45292;-50
2022/08/14 07:13:28;;;;;;;;;10.00;7.00;;;;;26.77;28.86;100156.97;5018267;28;47236;-50
2022/08/14 07:15:55;;;;;;;;;11.75;8.25;;;;;26.83;29.03;100160.91;5018511;28;45361;-51
2022/08/14 07:18:21;;;;;;;;;15.25;9.25;;;;;26.87;29.06;100161.47;5018575;28;45325;-51
2022/08/14 07:20:46;;;;;;;;;7.75;3.00;;;;;26.89;28.58;100162.16;5019772;28;45166;-46
2022/08/14 07:23:13;;;;;;;;;10.00;6.00;;;;;26.92;28.64;100164.53;5018286;28;47162;-47
2022/08/14 07:25:40;;;;;;;;;10.00;7.25;;;;;26.97;28.59;100172.91;5018404;28;45332;-47
2022/08/14 07:28:15;;;;;;;;;7.25;5.25;;;;;26.98;28.74;100162.16;5018963;28;45399;-44
2022/08/14 07:30:41;;;;;;;;;9.75;7.00;;;;;27.01;28.80;100153.88;5023310;28;45325;-45
2022/08/14 07:33:07;;;;;;;;;6.00;5.75;;;;;27.04;28.40;100149.25;5019604;28;45416;-47
2022/08/14 07:35:33;;;;;;;;;7.25;4.75;;;;;27.08;28.62;100154.13;5016884;28;45573;-48
2022/08/14 07:37:59;;;;;;;;;7.75;6.50;;;;;27.10;28.43;100161.97;5018169;28;45696;-48
2022/08/14 07:40:25;;;;;;;;;6.25;6.00;;;;;27.13;28.56;100165.19;5018538;28;45297;-46
2022/08/14 07:42:51;;;;;;;;;10.00;7.00;;;;;27.15;28.80;100163.22;5017857;28;46049;-50
2022/08/14 07:45:17;;;;;;;;;7.50;7.25;;;;;27.17;28.54;100155.91;5019021;28;45202;-50
2022/08/14 07:47:42;;;;;;;;;7.00;6.00;;;;;27.20;28.85;100145.97;5018926;28;45328;-47
2022/08/14 07:50:16;;;;;;;;;8.25;6.75;;;;;27.23;28.58;100135.03;5018348;28;45601;-47
2022/08/14 07:52:43;;;;;;;;;7.00;7.00;;;;;27.26;28.78;100124.13;5018182;28;45539;-47
2022/08/14 07:55:11;;;;;;;;;9.00;6.00;;;;;27.29;28.59;100118.47;5018267;28;45857;-48
2022/08/14 07:57:38;;;;;;;;;6.25;6.25;;;;;27.32;28.61;100128.84;5018321;28;45450;-49
2022/08/14 08:00:11;;;;;;;;;7.00;6.00;;;;;27.34;28.56;100121.56;5018410;28;45555;-49
2022/08/14 08:02:40;;;;;;;;;6.00;5.50;;;;;27.37;28.43;100120.41;5018128;28;46187;-46
2022/08/14 08:05:07;;;;;;;;;8.00;6.25;;;;;27.38;28.41;100122.94;5018627;28;45277;-47
2022/08/14 08:07:33;;;;;;;;;5.00;4.00;;;;;27.42;28.29;100134.94;5018204;28;45649;-46
2022/08/14 08:10:29;;;;;;;;;7.25;6.25;;;;;27.43;28.57;100131.31;5018537;28;45556;-48
2022/08/14 08:12:52;;;;;;;;;6.50;6.00;;;;;27.45;28.67;100137.34;5019752;28;45368;-46
2022/08/14 08:15:18;;;;;;;;;7.25;5.50;;;;;27.47;28.61;100142.53;5018397;28;45422;-48
2022/08/14 08:17:43;;;;;;;;;8.00;8.00;;;;;27.49;28.69;100134.41;5021435;28;45447;-48
2022/08/14 08:20:20;;;;;;;;;7.25;7.00;;;;;27.51;28.32;100137.72;5034064;28;44825;-47
2022/08/14 08:22:47;;;;;;;;;6.75;4.00;;;;;27.54;28.42;100140.09;5018712;28;45545;-45
2022/08/14 08:25:13;;;;;;;;;9.75;7.00;;;;;27.56;28.19;100149.59;5019919;28;45584;-47
2022/08/14 08:27:39;;;;;;;;;10.25;7.00;;;;;27.57;28.22;100145.16;5021387;28;45337;-49
2022/08/14 08:30:07;;;;;;;;;11.25;6.00;;;;;27.60;28.23;100158.16;5034398;28;45229;-48
2022/08/14 08:32:41;;;;;;;;;8.50;7.00;;;;;27.60;28.64;100164.31;5021812;28;46151;-50
2022/08/14 11:27:19;;;;;;;;;7.50;7.00;;;;;28.30;32.87;100146.09;5089989;22;45937;-43
2022/08/14 11:29:48;;;;;;;;;8.75;7.25;;;;;28.30;32.75;100144.25;5033435;28;44749;-43
2022/08/14 11:32:13;;;;;;;;;8.50;6.50;;;;;28.31;32.80;100137.91;5022091;28;45361;-43
2022/08/14 11:34:38;;;;;;;;;6.50;6.50;;;;;28.31;32.75;100139.75;5018909;28;46200;-44
2022/08/14 11:37:10;;;;;;;;;9.25;7.50;;;;;28.32;32.79;100136.13;5019189;28;45310;-43
2022/08/14 11:39:36;;;;;;;;;9.00;7.25;;;;;28.31;32.88;100137.91;5018705;28;45385;-42
2022/08/14 11:42:03;;;;;;;;;3.00;1.75;;;;;28.32;32.97;100144.94;5018851;28;45277;-42
2022/08/14 11:44:28;;;;;;;;;7.25;6.50;;;;;28.32;33.05;100142.25;5018845;28;46180;-43
2022/08/14 11:50:19;;;;;;;;;6.00;6.00;;;;;28.33;32.96;100154.59;5631168;22;45877;-41
2022/08/14 11:52:45;;;;;;;;;9.00;6.50;;;;;28.34;32.87;100150.09;5015957;28;45420;-41
2022/08/14 11:55:13;;;;;;;;;8.75;6.75;;;;;28.34;33.08;100150.09;5018025;28;46239;-41
2022/08/14 11:57:43;;;;;;;;;7.00;7.00;;;;;28.35;32.63;100149.09;5019038;28;45436;-43
2022/08/14 12:00:17;;;;;;;;;8.00;7.25;;;;;28.36;33.14;100150.78;5016894;28;45457;-43
2022/08/14 12:02:50;;;;;;;;;8.25;8.25;;;;;28.36;32.80;100154.31;5016850;28;45423;-42
2022/08/14 12:05:26;;;;;;;;;7.50;7.50;;;;;28.37;32.83;100155.97;5017120;28;46635;-41
2022/08/14 12:07:52;;;;;;;;;7.75;6.50;;;;;28.37;33.18;100161.31;5016738;28;45434;-42
2022/08/14 12:10:19;;;;;;;;;8.00;8.00;;;;;28.38;33.57;100164.81;5018662;28;45437;-43
2022/08/14 12:12:44;;;;;;;;;8.00;8.00;;;;;28.38;33.86;100159.47;5016727;28;45296;-41
2022/08/14 12:15:11;;;;;;;;;10.75;8.00;;;;;28.38;34.09;100165.66;5017111;28;46051;-43
2022/08/14 12:17:47;;;;;;;;;9.75;8.50;;;;;28.38;33.91;100163.00;5012325;28;45444;-43
2022/08/14 12:20:13;;;;;;;;;10.00;7.00;;;;;28.38;34.36;100160.31;5002588;28;45304;-42
2022/08/14 12:22:43;;;;;;;;;10.25;8.00;;;;;28.38;33.99;100173.66;5016867;28;45399;-41
2022/08/14 12:25:18;;;;;;;;;9.00;8.00;;;;;28.39;34.58;100174.47;5015915;28;47976;-41
2022/08/14 12:27:50;;;;;;;;;11.25;7.00;;;;;28.39;34.33;100183.28;5016737;28;45485;-41
2022/08/14 12:30:31;;;;;;;;;9.50;7.50;;;;;28.38;34.70;100184.31;5019220;28;45554;-42
2022/08/14 12:32:57;;;;;;;;;8.25;8.25;;;;;28.39;34.72;100191.28;5021359;28;45319;-42
2022/08/14 12:35:22;;;;;;;;;7.50;7.25;;;;;28.39;35.20;100188.63;5016765;28;45377;-41
2022/08/14 12:37:49;;;;;;;;;7.50;7.00;;;;;28.39;35.41;100191.28;5016445;28;45323;-41
2022/08/14 12:40:16;;;;;;;;;11.00;8.00;;;;;28.38;35.60;100186.97;5016497;28;45461;-44
2022/08/14 12:42:43;;;;;;;;;9.00;6.50;;;;;28.39;35.53;100195.78;5018000;28;45465;-42
2022/08/14 12:45:11;;;;;;;;;8.00;7.00;;;;;28.38;35.61;100200.31;5017862;28;46588;-43
2022/08/14 12:47:38;;;;;;;;;9.00;7.50;;;;;28.39;36.41;100209.13;5032900;28;45054;-43
2022/08/14 12:50:04;;;;;;;;;6.25;6.25;;;;;28.38;36.98;100200.31;5022092;28;45276;-43
2022/08/14 12:52:33;;;;;;;;;8.75;7.50;;;;;28.38;36.93;100205.63;5019103;28;45585;-42
2022/08/14 12:55:25;;;;;;;;;7.25;6.50;;;;;28.36;37.19;100202.28;5019495;28;45382;-42
2022/08/14 12:57:51;;;;;;;;;8.50;7.25;;;;;28.34;37.12;100190.91;5029235;28;45719;-43
2022/08/14 13:00:19;;;;;;;;;7.00;6.00;;;;;28.35;37.19;100195.25;5031886;28;45236;-44
2022/08/14 13:02:50;;;;;;;;;7.25;7.25;;;;;28.34;37.64;100185.59;5024293;28;45787;-41
2022/08/14 13:05:16;;;;;;;;;5.50;5.00;;;;;28.33;37.00;100185.75;5022863;28;46347;-44
2022/08/14 13:07:42;;;;;;;;;8.00;7.00;;;;;28.33;37.49;100186.56;5019775;28;45759;-42
2022/08/14 13:10:10;;;;;;;;;10.25;7.25;;;;;28.33;37.43;100181.25;5023589;28;44823;-42
2022/08/14 13:12:37;;;;;;;;;6.75;6.75;;;;;28.34;37.54;100185.59;5022285;28;45562;-42
2022/08/14 13:15:08;;;;;;;;;11.50;7.50;;;;;28.34;37.36;100180.25;5017742;28;46229;-42
2022/08/14 13:17:46;;;;;;;;;7.00;6.50;;;;;28.33;37.98;100175.91;5016899;28;45442;-42
2022/08/14 13:20:14;;;;;;;;;5.00;5.00;;;;;28.32;37.56;100168.09;5018041;28;45326;-41
2022/08/14 13:22:42;;;;;;;;;7.50;6.00;;;;;28.32;37.85;100168.09;5018348;28;45632;-42
2022/08/14 13:25:08;;;;;;;;;5.50;4.75;;;;;28.31;37.98;100172.56;5028686;28;45431;-41
2022/08/14 13:27:37;;;;;;;;;5.25;5.25;;;;;28.30;37.94;100170.88;5017973;28;45710;-44
2022/08/14 13:30:11;;;;;;;;;76.75;45.75;;;;;28.31;37.83;100167.22;5017584;28;45924;-42
2022/08/14 13:32:39;;;;;;;;;82.50;48.00;;;;;28.33;37.75;100170.59;5016875;28;45358;-42
2022/08/14 13:35:08;;;;;;;;;72.75;40.75;;;;;28.34;37.90;100168.75;5016426;28;46222;-44
2022/08/14 13:37:33;;;;;;;;;67.25;38.50;;;;;28.35;38.12;100165.09;5016793;28;45911;-43
2022/08/14 13:39:59;;;;;;;;;59.50;36.00;;;;;28.35;37.98;100152.63;5016759;28;45272;-41
2022/08/14 13:42:26;;;;;;;;;51.75;31.75;;;;;28.35;37.98;100157.97;5020909;28;45922;-41
2022/08/14 13:44:54;;;;;;;;;44.25;30.25;;;;;28.37;38.23;100163.13;5020365;28;46220;-42
2022/08/14 13:47:28;;;;;;;;;38.00;27.25;;;;;28.38;38.53;100157.66;5020203;28;45714;-41
2022/08/14 13:49:55;;;;;;;;;46.25;25.00;;;;;28.39;38.14;100159.31;5020353;28;45286;-41
2022/08/14 13:52:21;;;;;;;;;37.00;23.75;;;;;28.39;38.26;100159.31;5020015;28;45604;-40
2022/08/14 13:54:48;;;;;;;;;28.25;16.50;;;;;28.42;38.46;100152.00;5020334;28;46208;-41
2022/08/14 13:57:16;;;;;;;;;31.00;16.50;;;;;28.42;38.75;100152.84;5020618;28;45521;-41
2022/08/14 13:59:49;;;;;;;;;24.75;17.75;;;;;28.42;38.73;100144.84;5019838;28;45426;-40
2022/08/14 14:02:17;;;;;;;;;22.25;13.25;;;;;28.44;38.85;100144.69;5020750;28;45425;-41
2022/08/14 14:04:45;;;;;;;;;17.25;10.75;;;;;28.42;38.97;100136.00;5020407;28;46398;-41
2022/08/14 14:07:13;;;;;;;;;19.75;15.00;;;;;28.42;39.24;100141.34;5019637;28;45493;-41
2022/08/14 14:09:43;;;;;;;;;18.75;9.25;;;;;28.43;39.18;100129.69;5019211;28;45529;-40
2022/08/14 14:12:12;;;;;;;;;15.50;11.75;;;;;28.41;39.49;100124.53;5021516;28;45327;-40
2022/08/14 14:14:40;;;;;;;;;20.75;11.00;;;;;28.42;39.34;100126.19;5021726;28;46992;-41
2022/08/14 14:17:06;;;;;;;;;12.75;9.00;;;;;28.41;39.23;100119.19;5027316;28;45218;-42
2022/08/14 14:19:33;;;;;;;;;14.25;10.00;;;;;28.42;39.55;100128.00;5035775;28;44676;-43
2022/08/14 14:22:05;;;;;;;;;9.00;7.50;;;;;28.41;39.42;100118.34;5032629;28;45228;-41
2022/08/14 14:24:31;;;;;;;;;9.25;7.25;;;;;28.38;39.75;100120.34;5031065;28;46466;-41
2022/08/14 14:27:04;;;;;;;;;10.50;6.75;;;;;28.39;39.16;100129.16;5036320;28;45700;-42
2022/08/14 14:29:30;;;;;;;;;11.75;7.50;;;;;28.37;39.36;100124.00;5039609;28;44844;-41
2022/08/14 14:32:00;;;;;;;;;8.75;7.00;;;;;28.37;39.23;100113.34;5032812;28;45311;-52
2022/08/14 14:34:28;;;;;;;;;9.50;5.75;;;;;28.36;39.83;100119.66;5031596;28;45428;-44
2022/08/14 14:36:55;;;;;;;;;11.00;6.50;;;;;28.36;39.69;100111.66;5040195;28;45228;-41